Jacobabad Weather



Jacobabad's Current Weather

Temprature 32.07o clear sky

clear sky

Rain: 0 %

Min Temprature32.07o
Max Temprature32.07o
Humidity32
Wind Speed8.27 m/h
Sun Rise05:32:06
Sun Set19:14:19
Current Time: 24-May-2022 07:54:04
Lat/Lon: 28.281, 68.4388




Jacobabad's Geo Location



Jacobabad's Weather Forecast

Time Overall Temp Min Temp Max Temp Humidity Wind Speed Rain
24-May-2022 (Tue)
08:00:00 clear sky 32.070 32.070 32.070 32 8.27 m/h 0 %
11:00:00 clear sky 34.170 34.170 38.380 28 6.1 m/h 0 %
14:00:00 clear sky 38.590 38.590 41.850 18 4.99 m/h 0 %
17:00:00 clear sky 42.190 42.190 42.190 10 3.49 m/h 0 %
20:00:00 clear sky 37.310 37.310 37.310 15 3.9 m/h 0 %
23:00:00 clear sky 35.080 35.080 35.080 17 3.64 m/h 0 %
25-May-2022 (Wed)
02:00:00 clear sky 33.220 33.220 33.220 21 2.85 m/h 0 %
05:00:00 clear sky 31.030 31.030 31.030 23 3.24 m/h 0 %
08:00:00 clear sky 35.200 35.200 35.200 18 6.1 m/h 0 %
11:00:00 clear sky 41.090 41.090 41.090 12 3.6 m/h 0 %
14:00:00 clear sky 44.170 44.170 44.170 9 1.39 m/h 0 %
17:00:00 clear sky 44.910 44.910 44.910 6 1.72 m/h 0 %
20:00:00 clear sky 39.750 39.750 39.750 8 2.28 m/h 0 %
23:00:00 clear sky 36.460 36.460 36.460 13 3.54 m/h 0 %
26-May-2022 (Thu)
02:00:00 clear sky 33.230 33.230 33.230 35 3.9 m/h 0 %
05:00:00 clear sky 31.930 31.930 31.930 44 2.53 m/h 0 %
08:00:00 clear sky 36.330 36.330 36.330 34 3.06 m/h 0 %
11:00:00 clear sky 43.660 43.660 43.660 15 2.92 m/h 0 %
14:00:00 clear sky 48.050 48.050 48.050 6 3.13 m/h 0 %
17:00:00 clear sky 48.430 48.430 48.430 4 3.09 m/h 0 %
20:00:00 clear sky 41.560 41.560 41.560 8 3.83 m/h 0 %
23:00:00 clear sky 38.000 38.000 38.000 27 6.18 m/h 0 %
27-May-2022 (Fri)
02:00:00 clear sky 34.950 34.950 34.950 38 5.34 m/h 0 %
05:00:00 clear sky 31.730 31.730 31.730 50 2.77 m/h 0 %
08:00:00 clear sky 35.060 35.060 35.060 40 0.38 m/h 0 %
11:00:00 clear sky 45.340 45.340 45.340 12 4.13 m/h 0 %
14:00:00 clear sky 49.680 49.680 49.680 4 5.38 m/h 0 %
17:00:00 clear sky 49.480 49.480 49.480 3 7.83 m/h 0 %
20:00:00 clear sky 42.610 42.610 42.610 4 5.22 m/h 0 %
23:00:00 clear sky 41.750 41.750 41.750 4 9.62 m/h 0 %
28-May-2022 (Sat)
02:00:00 clear sky 40.000 40.000 40.000 4 8.85 m/h 0 %
05:00:00 clear sky 34.650 34.650 34.650 5 4.18 m/h 0 %
08:00:00 clear sky 41.710 41.710 41.710 3 7.8 m/h 0 %
11:00:00 clear sky 45.840 45.840 45.840 2 7.72 m/h 0 %
14:00:00 clear sky 47.910 47.910 47.910 1 6.04 m/h 0 %
17:00:00 clear sky 46.960 46.960 46.960 2 10.21 m/h 0 %
20:00:00 clear sky 41.680 41.680 41.680 3 9.29 m/h 0 %
23:00:00 clear sky 37.690 37.690 37.690 4 5.73 m/h 0 %
29-May-2022 (Sun)
02:00:00 clear sky 33.240 33.240 33.240 6 3.22 m/h 0 %
05:00:00 clear sky 31.380 31.380 31.380 6 3.71 m/h 0 %

Famous Cities (61)